Time;durP1;ratioP1;P1;durP2;ratioP2;P2;SDS_P1;SDS_P2;PMS_P1;PMS_P2;Temp;Humidity;BMP_temperature;BMP_pressure;BME280_temperature;BME280_humidity;BME280_pressure;Samples;Min_cycle;Max_cycle;Signal;HPM_P1;HPM_P2
2023/04/16 00:01:17;;;;;;;9.70;8.60;;;12.80;98.30;;;;;;5015192;28;20431;-93
2023/04/16 00:03:43;;;;;;;10.90;8.60;;;12.70;98.30;;;;;;5022732;28;20442;-93
2023/04/16 00:06:10;;;;;;;10.80;7.87;;;12.70;98.30;;;;;;5039030;28;20428;-94
2023/04/16 00:08:36;;;;;;;11.63;9.07;;;12.70;98.40;;;;;;5055636;28;20428;-93
2023/04/16 00:11:02;;;;;;;16.63;9.67;;;12.70;98.40;;;;;;5038497;28;20458;-94
2023/04/16 00:13:28;;;;;;;12.30;8.70;;;12.70;98.40;;;;;;5055356;28;20439;-94
2023/04/16 00:15:54;;;;;;;11.60;8.93;;;12.70;98.40;;;;;;5038889;28;20731;-94
2023/04/16 00:18:20;;;;;;;10.83;8.90;;;12.70;98.40;;;;;;5038509;28;20428;-94
2023/04/16 00:20:47;;;;;;;14.77;9.27;;;12.70;98.40;;;;;;5022332;28;20515;-93
2023/04/16 00:23:13;;;;;;;12.23;10.07;;;12.70;98.40;;;;;;5022205;28;20751;-94
2023/04/16 00:25:39;;;;;;;10.63;8.57;;;12.70;98.50;;;;;;5022076;28;20433;-93
2023/04/16 00:28:05;;;;;;;10.63;8.87;;;12.70;98.50;;;;;;5038754;28;20428;-94
2023/04/16 00:30:31;;;;;;;12.10;9.33;;;12.70;98.50;;;;;;5022142;28;20474;-94
2023/04/16 00:32:57;;;;;;;13.30;9.43;;;12.70;98.50;;;;;;5021915;28;20433;-95
2023/04/16 00:35:23;;;;;;;11.60;8.50;;;12.70;98.50;;;;;;5038276;28;20505;-94
2023/04/16 00:37:49;;;;;;;15.60;9.70;;;12.70;98.50;;;;;;5022231;28;20524;-94
2023/04/16 00:40:15;;;;;;;13.17;9.40;;;12.70;98.60;;;;;;5021972;28;20437;-93
2023/04/16 00:42:41;;;;;;;12.73;9.73;;;12.60;98.60;;;;;;5008256;28;20514;-92
2023/04/16 00:45:08;;;;;;;10.50;8.40;;;12.70;98.70;;;;;;5015680;28;20454;-93
2023/04/16 00:47:34;;;;;;;12.63;9.17;;;12.70;98.70;;;;;;5017508;28;20430;-93
2023/04/16 00:50:01;;;;;;;15.10;9.37;;;12.70;98.80;;;;;;5002166;28;20817;-94
2023/04/16 00:52:28;;;;;;;13.33;8.83;;;12.60;98.80;;;;;;5018429;28;20446;-93
2023/04/16 00:54:55;;;;;;;11.50;7.93;;;12.70;98.80;;;;;;5035778;28;20436;-93
2023/04/16 00:57:22;;;;;;;11.07;9.03;;;12.60;98.80;;;;;;5018430;28;20480;-90
2023/04/16 00:59:49;;;;;;;12.23;8.63;;;12.60;98.80;;;;;;5002397;28;20426;-91
2023/04/16 01:02:15;;;;;;;12.07;8.50;;;12.60;98.80;;;;;;5001541;28;20546;-91
2023/04/16 01:04:41;;;;;;;10.57;8.10;;;12.60;98.80;;;;;;5002204;28;20828;-91
2023/04/16 01:07:08;;;;;;;12.50;9.20;;;12.60;98.80;;;;;;5020268;28;20415;-91
2023/04/16 01:09:33;;;;;;;13.77;9.17;;;12.60;98.80;;;;;;5018864;28;20602;-90
2023/04/16 01:12:02;;;;;;;14.30;8.73;;;12.60;98.80;;;;;;5002991;28;20760;-91
2023/04/16 01:14:28;;;;;;;13.80;8.93;;;12.60;98.90;;;;;;5002549;28;20451;-92
2023/04/16 01:16:56;;;;;;;10.93;8.17;;;12.60;98.90;;;;;;4986695;28;20422;-92
2023/04/16 01:19:22;;;;;;;12.00;9.07;;;12.60;98.90;;;;;;5019136;28;20725;-93
2023/04/16 01:21:50;;;;;;;13.57;8.80;;;12.60;98.90;;;;;;5019977;28;20441;-92
2023/04/16 01:24:16;;;;;;;11.10;8.67;;;12.60;98.90;;;;;;5021868;28;20498;-93
2023/04/16 01:26:42;;;;;;;12.30;9.03;;;12.60;98.90;;;;;;5021901;28;20440;-93
2023/04/16 01:29:08;;;;;;;12.03;8.73;;;12.60;99.00;;;;;;5039168;28;20336;-92
2023/04/16 01:31:34;;;;;;;14.17;8.67;;;12.60;99.00;;;;;;5006076;28;20186;-92
2023/04/16 01:34:04;;;;;;;12.47;8.97;;;12.50;99.00;;;;;;5005502;28;20423;-92
2023/04/16 01:36:33;;;;;;;13.57;8.60;;;12.50;99.00;;;;;;5005330;28;20454;-93
2023/04/16 01:38:59;;;;;;;14.33;9.23;;;12.50;99.00;;;;;;5021906;28;20411;-92
2023/04/16 01:41:26;;;;;;;12.33;8.20;;;12.50;99.00;;;;;;5038441;28;20723;-92
2023/04/16 01:43:52;;;;;;;14.27;9.50;;;12.50;99.00;;;;;;5021529;28;20457;-91
2023/04/16 01:46:22;;;;;;;14.27;8.17;;;12.50;99.00;;;;;;5030001;28;20425;-93
2023/04/16 01:48:48;;;;;;;11.40;8.20;;;12.50;99.00;;;;;;5038598;28;20476;-92
2023/04/16 01:51:14;;;;;;;12.63;8.30;;;12.50;99.00;;;;;;5038110;28;20552;-92
2023/04/16 01:53:40;;;;;;;11.60;8.23;;;12.50;99.10;;;;;;5037501;28;20494;-92
2023/04/16 01:56:08;;;;;;;11.00;8.20;;;12.50;99.10;;;;;;5021233;28;20221;-92
2023/04/16 01:58:34;;;;;;;13.17;8.47;;;12.50;99.00;;;;;;5005077;28;20819;-92
2023/04/16 02:01:04;;;;;;;11.47;7.43;;;12.50;99.10;;;;;;5004831;28;20543;-89
2023/04/16 02:03:30;;;;;;;17.13;8.70;;;12.50;99.10;;;;;;5004531;28;20456;-89
2023/04/16 02:05:57;;;;;;;12.63;8.67;;;12.50;99.10;;;;;;5004700;28;20444;-89
2023/04/16 02:08:23;;;;;;;13.13;7.80;;;12.50;99.10;;;;;;5004661;28;20439;-89
2023/04/16 02:10:49;;;;;;;12.80;9.10;;;12.50;99.20;;;;;;5004328;28;20478;-88
2023/04/16 02:13:16;;;;;;;14.73;8.90;;;12.50;99.20;;;;;;5020585;28;20761;-89
2023/04/16 02:15:50;;;;;;;17.10;8.70;;;12.50;99.20;;;;;;5004892;28;20801;-89
2023/04/16 02:18:23;;;;;;;14.80;8.67;;;12.50;99.20;;;;;;5003856;28;20419;-89
2023/04/16 02:20:49;;;;;;;13.60;8.17;;;12.50;99.20;;;;;;5004167;28;20414;-90
2023/04/16 02:23:15;;;;;;;15.73;9.17;;;12.50;99.30;;;;;;5004467;28;20256;-89
2023/04/16 02:25:44;;;;;;;12.70;8.63;;;12.40;99.20;;;;;;4987758;28;20424;-89
2023/04/16 02:28:13;;;;;;;12.60;9.43;;;12.50;99.30;;;;;;5004502;28;20424;-89
2023/04/16 02:30:43;;;;;;;19.23;9.37;;;12.40;99.30;;;;;;5003945;28;20489;-89
2023/04/16 02:33:11;;;;;;;14.73;9.07;;;12.40;99.30;;;;;;5020547;28;20397;-89
2023/04/16 02:35:39;;;;;;;16.57;9.50;;;12.40;99.40;;;;;;5004174;28;20429;-89
2023/04/16 02:38:06;;;;;;;16.20;10.07;;;12.40;99.40;;;;;;4987645;28;20456;-89
2023/04/16 02:40:33;;;;;;;21.23;10.20;;;12.40;99.40;;;;;;5004261;28;20421;-88
2023/04/16 02:43:01;;;;;;;14.33;9.43;;;12.40;99.70;;;;;;5003611;28;20569;-88
2023/04/16 02:45:27;;;;;;;17.40;10.63;;;12.40;99.40;;;;;;5036529;28;20773;-88
2023/04/16 02:47:53;;;;;;;15.17;10.67;;;12.40;99.50;;;;;;5020181;28;20558;-89
2023/04/16 02:50:19;;;;;;;21.33;10.47;;;12.40;99.50;;;;;;5036385;28;21194;-89
2023/04/16 02:52:50;;;;;;;17.10;11.00;;;12.40;99.60;;;;;;5003646;28;20227;-89
2023/04/16 02:55:16;;;;;;;15.00;11.30;;;12.40;99.60;;;;;;4987579;28;20517;-89
2023/04/16 02:57:44;;;;;;;17.30;9.90;;;12.40;99.70;;;;;;5019888;28;20530;-89
2023/04/16 03:00:10;;;;;;;15.57;9.90;;;12.40;99.70;;;;;;5019796;28;20485;-89
2023/04/16 03:02:36;;;;;;;15.97;10.67;;;12.40;99.60;;;;;;5003467;28;20424;-89
2023/04/16 03:05:05;;;;;;;18.67;11.90;;;12.40;99.70;;;;;;4987946;28;20450;-89
2023/04/16 03:07:38;;;;;;;14.73;10.87;;;12.40;99.70;;;;;;5003977;28;20430;-88
2023/04/16 03:10:07;;;;;;;15.83;10.63;;;12.40;99.80;;;;;;5019270;28;20471;-89
2023/04/16 03:12:34;;;;;;;16.77;11.20;;;12.40;99.80;;;;;;5017830;28;20453;-89
2023/04/16 03:15:01;;;;;;;18.60;12.53;;;12.40;99.90;;;;;;5003292;28;20438;-89
2023/04/16 03:17:27;;;;;;;15.90;11.67;;;12.30;99.80;;;;;;5003294;28;20887;-89
2023/04/16 03:19:55;;;;;;;22.90;12.60;;;12.30;99.90;;;;;;5003316;28;20522;-89
2023/04/16 03:22:23;;;;;;;19.13;11.10;;;12.30;99.90;;;;;;5003049;28;20580;-88
2023/04/16 03:24:49;;;;;;;19.93;12.47;;;12.30;99.90;;;;;;4986869;28;20436;-89
2023/04/16 03:27:17;;;;;;;18.40;13.27;;;12.30;99.90;;;;;;5019517;28;20530;-89
2023/04/16 03:29:46;;;;;;;18.13;12.43;;;12.30;99.90;;;;;;5000982;28;20961;-89
2023/04/16 03:32:13;;;;;;;17.93;12.20;;;12.30;99.90;;;;;;5003225;28;20771;-89
2023/04/16 03:34:38;;;;;;;18.57;13.50;;;12.30;99.90;;;;;;5003132;28;20429;-90
2023/04/16 03:37:10;;;;;;;15.30;11.33;;;12.30;99.90;;;;;;5003119;28;20418;-89
2023/04/16 03:39:36;;;;;;;21.00;13.40;;;12.30;99.90;;;;;;5002432;28;20463;-89
2023/04/16 03:42:02;;;;;;;20.40;13.40;;;12.30;99.90;;;;;;5002774;28;20485;-88
2023/04/16 03:44:31;;;;;;;17.83;11.80;;;12.30;99.90;;;;;;5018905;28;20438;-89
2023/04/16 03:46:57;;;;;;;18.13;12.97;;;12.30;99.90;;;;;;5018973;28;20447;-88
2023/04/16 03:49:23;;;;;;;19.30;13.37;;;12.30;99.90;;;;;;5018812;28;20528;-88
2023/04/16 03:51:50;;;;;;;19.17;13.70;;;12.30;99.90;;;;;;5019282;28;20500;-88
2023/04/16 03:54:16;;;;;;;20.77;12.80;;;12.30;99.90;;;;;;5019363;28;20426;-89
2023/04/16 03:56:47;;;;;;;21.57;14.50;;;12.30;99.90;;;;;;4998519;28;20495;-88
2023/04/16 03:59:13;;;;;;;16.57;12.53;;;12.30;99.90;;;;;;4966264;28;20431;-89
2023/04/16 04:01:41;;;;;;;17.03;13.40;;;12.30;99.90;;;;;;4966630;28;20417;-89
2023/04/16 04:04:08;;;;;;;21.40;13.57;;;12.30;99.90;;;;;;4982141;28;20580;-89
2023/04/16 04:06:35;;;;;;;15.10;12.17;;;12.30;99.90;;;;;;4966174;28;20455;-89
2023/04/16 04:09:01;;;;;;;22.27;12.50;;;12.30;99.90;;;;;;4998078;28;20486;-88
2023/04/16 04:11:27;;;;;;;18.27;13.30;;;12.20;99.90;;;;;;4998028;28;20464;-89
2023/04/16 04:13:56;;;;;;;21.23;14.20;;;12.30;99.90;;;;;;4982007;28;20460;-89
2023/04/16 04:16:22;;;;;;;19.33;13.80;;;12.30;99.90;;;;;;4981848;28;20487;-88
2023/04/16 04:18:48;;;;;;;18.50;12.80;;;12.30;99.90;;;;;;4965861;28;20451;-89
2023/04/16 04:21:17;;;;;;;28.90;13.43;;;12.20;99.90;;;;;;4997840;28;20422;-90
2023/04/16 04:23:45;;;;;;;17.07;12.57;;;12.30;99.90;;;;;;4966149;28;20776;-89
2023/04/16 04:26:14;;;;;;;18.63;12.10;;;12.30;99.90;;;;;;4981708;28;20455;-89
2023/04/16 04:28:40;;;;;;;18.80;12.47;;;12.30;99.90;;;;;;4984408;28;20438;-88
2023/04/16 04:31:06;;;;;;;15.67;11.97;;;12.20;99.90;;;;;;5018112;28;20467;-89
2023/04/16 04:33:34;;;;;;;22.60;12.73;;;12.20;99.90;;;;;;5005483;28;20451;-88
2023/04/16 04:36:03;;;;;;;22.20;14.17;;;12.20;99.90;;;;;;5002168;28;20424;-88
2023/04/16 04:38:30;;;;;;;18.67;12.63;;;12.20;99.90;;;;;;5001978;28;20416;-89
2023/04/16 04:41:00;;;;;;;19.03;12.43;;;12.20;99.90;;;;;;4985637;28;20443;-89
2023/04/16 04:43:29;;;;;;;21.33;13.03;;;12.20;99.90;;;;;;5002321;28;20425;-89
2023/04/16 04:45:55;;;;;;;20.47;13.20;;;12.20;99.90;;;;;;4985521;28;21068;-89
2023/04/16 04:48:25;;;;;;;17.53;13.13;;;12.20;99.90;;;;;;5001991;28;20217;-89
2023/04/16 04:50:52;;;;;;;18.97;13.17;;;12.20;99.90;;;;;;5001440;28;20458;-89
2023/04/16 04:53:21;;;;;;;22.30;13.77;;;12.20;99.90;;;;;;5001656;28;20486;-89
2023/04/16 04:55:47;;;;;;;17.80;12.67;;;12.20;99.90;;;;;;5001600;28;20428;-88
2023/04/16 04:58:13;;;;;;;16.90;12.43;;;12.20;99.90;;;;;;5001803;28;20457;-88
2023/04/16 05:00:41;;;;;;;18.83;13.10;;;12.20;99.90;;;;;;5017694;28;20421;-88
2023/04/16 05:03:10;;;;;;;21.50;13.57;;;12.20;99.90;;;;;;5017896;28;20443;-88
2023/04/16 05:05:41;;;;;;;18.17;13.10;;;12.20;99.90;;;;;;5018209;28;20431;-88
2023/04/16 05:08:07;;;;;;;21.50;12.63;;;12.20;99.90;;;;;;5001292;28;20428;-88
2023/04/16 05:10:33;;;;;;;21.27;13.37;;;12.20;99.90;;;;;;5017263;28;20499;-88
2023/04/16 05:12:59;;;;;;;22.20;13.47;;;12.10;99.90;;;;;;5017763;28;20428;-88
2023/04/16 05:15:25;;;;;;;20.30;13.00;;;12.20;99.90;;;;;;5017625;28;20431;-88
2023/04/16 05:17:50;;;;;;;19.50;13.17;;;12.20;99.90;;;;;;5017565;28;20465;-88
2023/04/16 05:20:19;;;;;;;23.03;14.73;;;12.20;99.90;;;;;;5017835;28;20474;-88
2023/04/16 05:22:44;;;;;;;21.47;15.10;;;12.20;99.90;;;;;;5034000;28;20185;-88
2023/04/16 05:25:10;;;;;;;24.00;14.63;;;12.20;99.90;;;;;;5017530;28;20431;-88
2023/04/16 05:27:42;;;;;;;24.33;15.90;;;12.10;99.90;;;;;;4977559;28;20730;-88
2023/04/16 05:30:09;;;;;;;23.77;15.50;;;12.20;99.90;;;;;;4977402;28;20514;-88
2023/04/16 05:32:37;;;;;;;22.67;15.47;;;12.20;99.90;;;;;;4977532;28;20847;-87
2023/04/16 05:35:03;;;;;;;21.00;14.10;;;12.20;99.90;;;;;;4977671;28;20545;-88
2023/04/16 05:37:29;;;;;;;20.60;14.40;;;12.20;99.90;;;;;;4961368;28;20452;-88
2023/04/16 05:39:57;;;;;;;19.97;13.90;;;12.20;99.90;;;;;;4961266;28;20512;-88
2023/04/16 05:42:23;;;;;;;22.60;14.40;;;12.10;99.90;;;;;;4977260;28;20432;-88
2023/04/16 05:44:50;;;;;;;21.83;14.60;;;12.20;99.90;;;;;;4961332;28;20470;-88
2023/04/16 05:47:16;;;;;;;24.30;14.93;;;12.10;99.90;;;;;;4977474;28;20448;-88
2023/04/16 05:49:42;;;;;;;21.90;14.13;;;12.20;99.90;;;;;;4961076;28;20802;-88
2023/04/16 05:52:08;;;;;;;24.13;15.57;;;12.20;99.90;;;;;;4961333;28;20424;-88
2023/04/16 05:54:36;;;;;;;23.30;15.67;;;12.10;99.90;;;;;;4964175;28;20188;-88
2023/04/16 05:57:02;;;;;;;20.80;14.93;;;12.10;99.90;;;;;;4964709;28;20434;-89
2023/04/16 05:59:29;;;;;;;21.30;15.50;;;12.10;99.90;;;;;;4964829;28;20435;-88
2023/04/16 06:01:56;;;;;;;23.57;14.33;;;12.10;99.90;;;;;;4964708;28;20464;-88
2023/04/16 06:04:22;;;;;;;20.73;14.63;;;12.10;99.90;;;;;;4972818;28;20428;-88
2023/04/16 06:06:48;;;;;;;22.30;15.60;;;12.10;99.90;;;;;;5020735;28;20476;-88
2023/04/16 06:09:17;;;;;;;21.53;13.93;;;12.10;99.90;;;;;;5020703;28;20437;-88
2023/04/16 06:11:43;;;;;;;23.87;15.70;;;12.10;99.90;;;;;;5036834;28;20497;-88
2023/04/16 06:14:12;;;;;;;21.60;15.10;;;12.10;99.90;;;;;;5004291;28;20560;-88
2023/04/16 06:16:38;;;;;;;21.60;14.67;;;12.10;99.90;;;;;;5003939;28;20814;-88
2023/04/16 06:19:06;;;;;;;21.87;13.93;;;12.10;99.90;;;;;;5036752;28;20413;-88
2023/04/16 06:21:34;;;;;;;24.20;15.30;;;12.10;99.90;;;;;;5003981;28;20574;-87
2023/04/16 06:24:00;;;;;;;24.43;15.60;;;12.10;99.90;;;;;;5036407;28;20453;-87
2023/04/16 06:26:26;;;;;;;23.03;15.87;;;12.10;99.90;;;;;;5003689;28;20468;-87
2023/04/16 06:28:54;;;;;;;20.27;14.90;;;12.10;99.90;;;;;;5003948;28;20930;-88
2023/04/16 06:31:21;;;;;;;27.13;15.70;;;12.10;99.90;;;;;;5003865;28;20969;-87
2023/04/16 06:33:47;;;;;;;21.00;13.80;;;12.10;99.90;;;;;;5019968;28;20766;-87
2023/04/16 06:36:15;;;;;;;24.60;15.57;;;12.10;99.90;;;;;;5015735;28;20456;-86
2023/04/16 06:38:49;;;;;;;23.90;15.30;;;12.10;99.90;;;;;;4983118;28;20471;-87
2023/04/16 06:41:15;;;;;;;20.47;13.97;;;12.10;99.90;;;;;;4983366;28;20429;-86
2023/04/16 06:43:41;;;;;;;22.77;15.13;;;12.10;99.90;;;;;;4982933;28;20750;-86
2023/04/16 06:46:07;;;;;;;22.40;14.83;;;12.10;99.90;;;;;;4983005;28;20577;-86
2023/04/16 06:48:33;;;;;;;23.20;15.87;;;12.10;99.90;;;;;;4999125;28;20425;-87
2023/04/16 06:50:59;;;;;;;21.37;14.93;;;12.10;99.90;;;;;;4982639;28;20518;-87
2023/04/16 06:53:25;;;;;;;23.40;14.97;;;12.10;99.90;;;;;;4982846;28;20869;-87
2023/04/16 06:55:53;;;;;;;22.40;13.80;;;12.00;99.90;;;;;;4982803;28;20527;-86
2023/04/16 06:58:19;;;;;;;20.17;14.13;;;12.00;99.90;;;;;;4998975;28;20416;-87
2023/04/16 07:00:47;;;;;;;21.93;13.97;;;12.10;99.90;;;;;;4998816;28;20468;-86
2023/04/16 07:03:13;;;;;;;25.10;15.60;;;12.00;99.90;;;;;;4982834;28;20472;-87
2023/04/16 07:05:39;;;;;;;23.67;14.13;;;12.00;99.90;;;;;;4982482;28;20507;-88
2023/04/16 07:08:05;;;;;;;23.43;16.13;;;12.00;99.90;;;;;;5000498;28;20493;-87
2023/04/16 07:10:31;;;;;;;23.87;14.87;;;12.00;99.90;;;;;;5002757;28;20481;-87
2023/04/16 07:13:00;;;;;;;25.63;16.67;;;12.00;99.90;;;;;;5002911;28;20794;-87
2023/04/16 07:15:26;;;;;;;23.93;15.23;;;12.00;99.90;;;;;;5019147;28;20450;-87
2023/04/16 07:17:52;;;;;;;22.73;15.07;;;12.00;99.90;;;;;;5002803;28;20453;-87
2023/04/16 07:20:18;;;;;;;18.70;13.73;;;12.00;99.90;;;;;;5002481;28;20450;-87
2023/04/16 07:22:48;;;;;;;21.97;15.50;;;12.00;99.90;;;;;;5019011;28;20204;-87
2023/04/16 07:25:14;;;;;;;25.43;15.73;;;12.00;99.90;;;;;;5034989;28;20422;-87
2023/04/16 07:31:17;;;;;;;21.47;15.27;;;12.00;99.90;;;;;;5018728;28;20513;-87
2023/04/16 07:33:43;;;;;;;24.77;16.00;;;12.00;99.90;;;;;;5002455;28;20451;-87
2023/04/16 07:36:09;;;;;;;23.27;14.97;;;12.00;99.90;;;;;;5018627;28;20437;-87
2023/04/16 07:38:38;;;;;;;18.47;13.60;;;12.00;99.90;;;;;;5018657;28;20267;-87
2023/04/16 07:41:04;;;;;;;24.60;16.47;;;12.00;99.90;;;;;;5002328;28;20512;-89
2023/04/16 07:43:30;;;;;;;26.43;16.03;;;12.00;99.90;;;;;;5018550;28;20584;-88
2023/04/16 07:45:55;;;;;;;28.70;17.97;;;12.00;99.90;;;;;;5002676;28;20444;-87
2023/04/16 07:48:21;;;;;;;26.23;16.30;;;12.00;99.90;;;;;;5018545;28;20430;-88
2023/04/16 07:50:50;;;;;;;24.17;17.23;;;12.00;99.90;;;;;;5002096;28;20272;-86
2023/04/16 07:53:16;;;;;;;25.43;16.10;;;12.00;99.90;;;;;;5002323;28;20455;-88
2023/04/16 07:55:42;;;;;;;24.97;17.47;;;12.00;99.90;;;;;;5002439;28;20513;-86
2023/04/16 07:58:08;;;;;;;22.73;15.30;;;12.00;99.90;;;;;;5002269;28;20426;-88
2023/04/16 08:00:34;;;;;;;24.60;17.00;;;12.00;99.90;;;;;;5002195;28;20832;-87
2023/04/16 08:03:03;;;;;;;26.57;17.43;;;12.00;99.90;;;;;;4985987;28;20897;-87
2023/04/16 08:05:31;;;;;;;19.40;14.33;;;12.00;99.90;;;;;;5001880;28;20450;-86
2023/04/16 08:07:57;;;;;;;24.90;17.30;;;12.00;99.90;;;;;;5018244;28;20424;-86
2023/04/16 08:10:23;;;;;;;25.23;16.00;;;12.00;99.90;;;;;;5001731;28;20472;-86
2023/04/16 08:12:49;;;;;;;23.97;16.73;;;12.00;99.90;;;;;;5001933;28;20507;-87
2023/04/16 08:15:17;;;;;;;24.70;17.57;;;12.00;99.90;;;;;;4985961;28;20440;-88
2023/04/16 08:17:45;;;;;;;23.90;16.40;;;12.00;99.90;;;;;;5034226;28;20442;-87
2023/04/16 08:20:11;;;;;;;26.50;18.37;;;12.00;99.90;;;;;;5018796;28;20434;-88
2023/04/16 08:22:37;;;;;;;25.57;17.53;;;12.00;99.90;;;;;;4993513;28;20469;-87
2023/04/16 08:25:09;;;;;;;23.83;16.60;;;12.00;99.90;;;;;;5031697;28;20419;-87
2023/04/16 08:27:35;;;;;;;22.37;16.80;;;12.00;99.90;;;;;;5001974;28;20458;-87
2023/04/16 08:30:01;;;;;;;29.40;17.50;;;12.00;99.90;;;;;;5001811;28;20501;-87
2023/04/16 08:32:27;;;;;;;25.17;16.83;;;12.00;99.90;;;;;;5001913;28;20447;-89
2023/04/16 08:34:53;;;;;;;19.10;14.70;;;12.10;99.90;;;;;;5002003;28;20987;-88
2023/04/16 08:37:19;;;;;;;26.40;17.37;;;12.10;99.90;;;;;;5001895;28;20531;-88
2023/04/16 08:39:47;;;;;;;22.93;17.60;;;12.10;99.90;;;;;;5001962;28;20445;-88
2023/04/16 08:42:25;;;;;;;23.53;16.43;;;12.00;99.90;;;;;;5017825;28;20433;-88
2023/04/16 08:45:05;;;;;;;23.13;16.23;;;12.00;99.90;;;;;;5001585;28;20425;-87
2023/04/16 08:47:34;;;;;;;21.70;16.10;;;12.10;99.90;;;;;;5001184;28;20427;-87
2023/04/16 08:50:03;;;;;;;20.27;16.10;;;12.10;99.90;;;;;;5001556;28;20551;-87
2023/04/16 08:52:30;;;;;;;25.13;16.53;;;12.10;99.90;;;;;;5001776;28;20796;-86
2023/04/16 08:55:15;;;;;;;20.33;14.73;;;12.10;99.90;;;;;;5001227;28;20410;-87
2023/04/16 08:58:09;;;;;;;25.10;16.20;;;12.10;99.90;;;;;;5001247;28;20451;-87
2023/04/16 09:00:44;;;;;;;24.80;16.67;;;12.10;99.90;;;;;;5001410;28;20457;-87
2023/04/16 09:03:20;;;;;;;21.07;15.40;;;12.10;99.90;;;;;;4986167;28;20476;-87
2023/04/16 09:05:54;;;;;;;20.80;15.57;;;12.10;99.90;;;;;;5001003;28;20505;-87
2023/04/16 09:08:23;;;;;;;23.97;16.27;;;12.10;99.90;;;;;;5001055;28;20409;-87
2023/04/16 09:15:05;;;;;;;22.60;16.17;;;12.20;99.90;;;;;;4954543;28;20461;-87
2023/04/16 09:17:34;;;;;;;19.20;14.30;;;12.10;99.90;;;;;;4939231;29;20541;-87
2023/04/16 09:20:00;;;;;;;21.83;15.00;;;12.10;99.90;;;;;;4938647;29;20443;-88
2023/04/16 09:22:26;;;;;;;22.50;15.53;;;12.20;99.90;;;;;;4938738;29;20577;-87
2023/04/16 09:24:52;;;;;;;21.47;16.10;;;12.20;99.90;;;;;;4922652;29;21185;-87
2023/04/16 09:27:18;;;;;;;21.50;15.63;;;12.20;99.90;;;;;;4940024;28;20514;-87
2023/04/16 09:29:48;;;;;;;19.33;14.17;;;12.20;99.90;;;;;;4945946;28;20567;-87
2023/04/16 09:32:14;;;;;;;20.47;14.60;;;12.20;99.90;;;;;;4945813;28;20417;-87
2023/04/16 09:34:59;;;;;;;21.43;15.70;;;12.20;99.90;;;;;;4978112;28;20433;-88
2023/04/16 09:37:29;;;;;;;21.30;16.23;;;12.30;99.90;;;;;;4946016;28;20464;-88
2023/04/16 09:40:00;;;;;;;23.93;15.37;;;12.30;99.90;;;;;;4961660;28;20428;-87
2023/04/16 09:42:32;;;;;;;22.70;16.97;;;12.30;99.90;;;;;;4962376;28;20564;-89
2023/04/16 09:44:59;;;;;;;22.43;15.87;;;12.30;99.90;;;;;;5010434;28;20430;-88
2023/04/16 09:47:37;;;;;;;21.63;16.40;;;12.30;99.90;;;;;;5037249;28;20478;-88
2023/04/16 09:50:03;;;;;;;24.20;18.10;;;12.30;99.90;;;;;;5021254;28;20463;-88
2023/04/16 09:52:29;;;;;;;23.27;16.53;;;12.30;99.90;;;;;;5004507;28;20465;-88
2023/04/16 09:54:55;;;;;;;22.30;16.93;;;12.40;99.90;;;;;;5004469;28;20437;-89
2023/04/16 09:57:23;;;;;;;23.57;17.07;;;12.40;99.90;;;;;;5004480;28;20518;-88
2023/04/16 10:00:05;;;;;;;23.87;16.30;;;12.30;99.90;;;;;;5004147;28;20446;-87
2023/04/16 10:02:33;;;;;;;24.73;15.93;;;12.40;99.90;;;;;;5004389;28;20454;-88
2023/04/16 10:05:01;;;;;;;25.43;18.77;;;12.40;99.90;;;;;;5004198;28;20481;-88
2023/04/16 10:07:28;;;;;;;25.77;16.80;;;12.40;99.90;;;;;;5004163;28;20437;-88
2023/04/16 10:09:55;;;;;;;23.23;16.80;;;12.40;99.90;;;;;;5021341;28;20535;-88
2023/04/16 10:12:21;;;;;;;21.17;15.90;;;12.40;99.90;;;;;;5004211;28;20504;-88
2023/04/16 10:14:47;;;;;;;19.37;15.27;;;12.40;99.90;;;;;;5004450;28;20741;-88
2023/04/16 10:17:14;;;;;;;23.93;16.87;;;12.50;99.90;;;;;;5003978;28;20435;-88
2023/04/16 10:19:41;;;;;;;20.77;15.90;;;12.50;99.90;;;;;;5020150;28;20443;-88
2023/04/16 10:22:07;;;;;;;22.97;16.03;;;12.50;99.90;;;;;;5004335;28;20426;-88
2023/04/16 10:24:34;;;;;;;22.83;17.20;;;12.50;99.90;;;;;;4987281;28;20489;-87
2023/04/16 10:27:00;;;;;;;27.57;17.73;;;12.50;99.90;;;;;;5003716;28;20503;-87
2023/04/16 10:29:30;;;;;;;25.13;16.03;;;12.50;99.90;;;;;;5003480;28;20445;-86
2023/04/16 10:31:57;;;;;;;23.40;16.97;;;12.50;99.90;;;;;;5003884;28;20423;-86
2023/04/16 10:34:27;;;;;;;19.80;15.70;;;12.50;99.90;;;;;;5004148;28;20501;-87
2023/04/16 10:36:54;;;;;;;25.43;15.20;;;12.50;99.90;;;;;;5020250;28;20423;-88
2023/04/16 10:39:22;;;;;;;18.70;14.60;;;12.60;99.90;;;;;;5003078;28;20872;-89
2023/04/16 10:42:05;;;;;;;22.00;15.33;;;12.60;99.90;;;;;;4987543;28;20976;-88
2023/04/16 10:44:31;;;;;;;20.53;15.63;;;12.60;99.90;;;;;;5003523;28;20434;-89
2023/04/16 10:47:00;;;;;;;20.70;14.90;;;12.60;99.90;;;;;;5003919;28;20432;-89
2023/04/16 10:49:26;;;;;;;17.87;13.57;;;12.60;99.90;;;;;;5003392;28;20427;-89
2023/04/16 10:51:56;;;;;;;18.70;14.67;;;12.60;99.90;;;;;;5003388;28;20952;-87
2023/04/16 10:54:23;;;;;;;23.07;15.43;;;12.60;99.90;;;;;;5003423;28;20444;-87
2023/04/16 10:56:50;;;;;;;19.20;14.33;;;12.70;99.90;;;;;;5003477;28;20430;-88
2023/04/16 10:59:20;;;;;;;19.07;14.13;;;12.70;99.90;;;;;;5019780;28;20650;-88
2023/04/16 11:01:51;;;;;;;18.73;14.90;;;12.70;99.90;;;;;;5019996;28;20453;-88
2023/04/16 11:04:20;;;;;;;20.80;14.27;;;12.70;99.90;;;;;;5052886;28;20422;-88
2023/04/16 11:07:05;;;;;;;18.87;14.00;;;12.70;99.90;;;;;;5019762;28;20454;-88
2023/04/16 11:10:01;;;;;;;17.97;13.90;;;12.70;99.90;;;;;;5019359;28;20919;-88
2023/04/16 11:12:39;;;;;;;23.37;14.50;;;12.80;99.90;;;;;;5020100;28;20454;-88
2023/04/16 11:15:10;;;;;;;21.10;14.90;;;12.70;99.90;;;;;;5019530;28;20502;-89
2023/04/16 11:17:50;;;;;;;19.80;13.83;;;12.80;99.90;;;;;;5019651;28;20795;-91
2023/04/16 11:20:18;;;;;;;18.10;14.33;;;12.80;99.90;;;;;;5036431;28;20501;-89
2023/04/16 11:22:49;;;;;;;21.10;15.57;;;12.80;99.90;;;;;;5019831;28;20435;-90
2023/04/16 11:25:29;;;;;;;21.20;16.27;;;12.80;99.90;;;;;;5009569;28;20551;-91
2023/04/16 11:28:04;;;;;;;16.80;13.13;;;12.90;99.90;;;;;;5000993;28;20757;-89
2023/04/16 11:30:35;;;;;;;23.73;15.50;;;12.90;99.90;;;;;;5019484;28;20485;-90
2023/04/16 11:33:10;;;;;;;16.97;14.00;;;12.90;99.90;;;;;;5019890;28;20448;-89
2023/04/16 11:35:42;;;;;;;20.83;15.70;;;12.90;99.90;;;;;;5006260;28;20433;-90
2023/04/16 11:38:11;;;;;;;19.17;14.07;;;12.90;99.90;;;;;;4983508;28;20422;-91
2023/04/16 11:40:37;;;;;;;19.17;14.30;;;12.90;99.90;;;;;;4984029;28;20520;-90
2023/04/16 11:43:12;;;;;;;21.43;15.27;;;13.00;99.90;;;;;;4983644;28;20813;-89
2023/04/16 11:45:38;;;;;;;20.30;14.23;;;12.90;99.90;;;;;;5007484;28;20443;-88
2023/04/16 11:48:04;;;;;;;17.17;12.77;;;13.00;99.90;;;;;;5031910;28;20475;-89
2023/04/16 11:50:30;;;;;;;17.57;14.27;;;13.00;99.90;;;;;;5029231;28;20463;-89
2023/04/16 11:53:03;;;;;;;16.47;13.17;;;13.00;99.90;;;;;;5018547;28;20782;-88
2023/04/16 11:55:29;;;;;;;18.70;13.10;;;13.00;99.90;;;;;;5002045;28;20490;-88
2023/04/16 11:58:10;;;;;;;17.83;13.00;;;13.00;99.90;;;;;;5018605;28;20436;-87
2023/04/16 12:00:36;;;;;;;14.30;12.73;;;13.00;99.90;;;;;;5002671;28;20575;-88
2023/04/16 12:03:02;;;;;;;16.57;13.07;;;13.10;99.90;;;;;;5034851;28;20994;-88
2023/04/16 12:05:37;;;;;;;15.83;12.17;;;13.10;99.90;;;;;;5018869;28;20904;-87
2023/04/16 12:08:09;;;;;;;18.20;11.93;;;13.10;99.90;;;;;;5001724;28;20436;-87
2023/04/16 12:11:11;;;;;;;13.80;10.93;;;13.10;99.90;;;;;;5018516;28;20550;-87
2023/04/16 12:13:38;;;;;;;15.40;12.80;;;13.10;99.90;;;;;;4939374;29;20460;-89
2023/04/16 12:16:17;;;;;;;14.63;12.00;;;13.10;99.90;;;;;;4986487;28;20766;-88
2023/04/16 12:19:02;;;;;;;16.03;12.27;;;13.20;99.90;;;;;;5018126;28;20742;-88
2023/04/16 12:21:45;;;;;;;13.13;11.10;;;13.20;99.90;;;;;;5017715;28;20420;-89
2023/04/16 12:24:16;;;;;;;13.50;11.53;;;13.20;99.90;;;;;;5034260;28;20452;-87
2023/04/16 12:26:47;;;;;;;14.27;11.03;;;13.20;99.90;;;;;;5018096;28;20584;-89
2023/04/16 12:29:18;;;;;;;14.10;10.30;;;13.30;99.90;;;;;;5017993;28;20569;-89
2023/04/16 12:31:47;;;;;;;12.57;11.20;;;13.30;99.90;;;;;;5017839;28;20796;-87
2023/04/16 12:34:16;;;;;;;13.87;11.07;;;13.30;99.90;;;;;;5017941;28;20438;-88
2023/04/16 12:36:43;;;;;;;13.80;11.10;;;13.40;99.90;;;;;;5001711;28;20771;-88
2023/04/16 12:39:10;;;;;;;13.47;10.80;;;13.40;99.90;;;;;;5009895;28;20408;-87
2023/04/16 12:41:38;;;;;;;13.00;10.77;;;13.40;99.90;;;;;;5018439;28;21038;-89